sensor_id;sensor_type;location;lat;lon;timestamp;pressure;altitude;pressure_sealevel;temperature;humidity
71778;BME280;59609;52.430;4.668;2023-03-02T00:00:05;102678.38;;;3.86;100.00
71778;BME280;59609;52.430;4.668;2023-03-02T00:02:41;102676.63;;;3.85;100.00
71778;BME280;59609;52.430;4.668;2023-03-02T00:05:08;102680.44;;;3.81;100.00
71778;BME280;59609;52.430;4.668;2023-03-02T00:07:35;102684.41;;;3.92;100.00
71778;BME280;59609;52.430;4.668;2023-03-02T00:10:01;102671.66;;;3.93;100.00
71778;BME280;59609;52.430;4.668;2023-03-02T00:12:27;102686.91;;;3.97;100.00
71778;BME280;59609;52.430;4.668;2023-03-02T00:14:54;102697.66;;;4.00;100.00
71778;BME280;59609;52.430;4.668;2023-03-02T00:17:19;102697.31;;;3.89;100.00
71778;BME280;59609;52.430;4.668;2023-03-02T00:19:52;102692.03;;;3.86;100.00
71778;BME280;59609;52.430;4.668;2023-03-02T00:22:17;102687.94;;;3.94;100.00
71778;BME280;59609;52.430;4.668;2023-03-02T00:24:43;102692.59;;;3.92;100.00
71778;BME280;59609;52.430;4.668;2023-03-02T00:27:08;102686.78;;;3.81;100.00
71778;BME280;59609;52.430;4.668;2023-03-02T00:29:34;102685.84;;;3.99;100.00
71778;BME280;59609;52.430;4.668;2023-03-02T00:31:59;102696.75;;;3.99;100.00
71778;BME280;59609;52.430;4.668;2023-03-02T00:34:24;102688.81;;;4.12;100.00
71778;BME280;59609;52.430;4.668;2023-03-02T00:36:50;102685.94;;;4.15;100.00
71778;BME280;59609;52.430;4.668;2023-03-02T00:39:15;102694.75;;;4.03;100.00
71778;BME280;59609;52.430;4.668;2023-03-02T00:41:44;102689.47;;;4.00;100.00
71778;BME280;59609;52.430;4.668;2023-03-02T00:44:09;102689.13;;;3.89;100.00
71778;BME280;59609;52.430;4.668;2023-03-02T00:46:41;102682.31;;;3.97;100.00
71778;BME280;59609;52.430;4.668;2023-03-02T00:49:06;102687.84;;;3.96;100.00
71778;BME280;59609;52.430;4.668;2023-03-02T00:51:32;102679.84;;;4.10;100.00
71778;BME280;59609;52.430;4.668;2023-03-02T00:53:57;102684.31;;;4.11;100.00
71778;BME280;59609;52.430;4.668;2023-03-02T00:56:26;102674.53;;;4.07;100.00
71778;BME280;59609;52.430;4.668;2023-03-02T00:58:52;102680.63;;;4.12;100.00
71778;BME280;59609;52.430;4.668;2023-03-02T01:01:17;102673.97;;;4.18;100.00
71778;BME280;59609;52.430;4.668;2023-03-02T01:03:42;102675.03;;;4.15;100.00
71778;BME280;59609;52.430;4.668;2023-03-02T01:06:14;102672.84;;;4.22;100.00
71778;BME280;59609;52.430;4.668;2023-03-02T01:08:40;102668.63;;;4.16;100.00
71778;BME280;59609;52.430;4.668;2023-03-02T01:11:18;102671.41;;;4.14;100.00
71778;BME280;59609;52.430;4.668;2023-03-02T01:13:44;102678.41;;;4.20;100.00
71778;BME280;59609;52.430;4.668;2023-03-02T01:16:10;102679.25;;;4.21;100.00
71778;BME280;59609;52.430;4.668;2023-03-02T01:18:36;102681.03;;;4.22;100.00
71778;BME280;59609;52.430;4.668;2023-03-02T01:21:11;102682.47;;;4.29;100.00
71778;BME280;59609;52.430;4.668;2023-03-02T01:23:37;102674.34;;;4.27;100.00
71778;BME280;59609;52.430;4.668;2023-03-02T01:26:03;102681.69;;;4.27;100.00
71778;BME280;59609;52.430;4.668;2023-03-02T01:28:28;102676.13;;;4.28;100.00
71778;BME280;59609;52.430;4.668;2023-03-02T01:30:53;102660.81;;;4.26;100.00
71778;BME280;59609;52.430;4.668;2023-03-02T01:33:20;102673.19;;;4.15;100.00
71778;BME280;59609;52.430;4.668;2023-03-02T01:35:46;102672.78;;;4.23;100.00
71778;BME280;59609;52.430;4.668;2023-03-02T01:38:12;102652.09;;;4.19;100.00
71778;BME280;59609;52.430;4.668;2023-03-02T01:40:37;102661.88;;;4.23;100.00
71778;BME280;59609;52.430;4.668;2023-03-02T01:43:10;102666.66;;;4.35;100.00
71778;BME280;59609;52.430;4.668;2023-03-02T01:45:54;102666.66;;;4.18;100.00
71778;BME280;59609;52.430;4.668;2023-03-02T01:48:38;102657.88;;;4.13;100.00
71778;BME280;59609;52.430;4.668;2023-03-02T01:51:06;102666.66;;;4.01;100.00
71778;BME280;59609;52.430;4.668;2023-03-02T01:53:33;102662.59;;;3.92;100.00
71778;BME280;59609;52.430;4.668;2023-03-02T01:56:01;102658.66;;;3.98;100.00
71778;BME280;59609;52.430;4.668;2023-03-02T01:58:27;102660.75;;;3.93;100.00
71778;BME280;59609;52.430;4.668;2023-03-02T02:00:56;102664.22;;;3.96;100.00
71778;BME280;59609;52.430;4.668;2023-03-02T02:03:25;102659.22;;;4.04;100.00
71778;BME280;59609;52.430;4.668;2023-03-02T02:06:08;102658.19;;;3.90;100.00
71778;BME280;59609;52.430;4.668;2023-03-02T02:08:36;102658.81;;;3.95;100.00
71778;BME280;59609;52.430;4.668;2023-03-02T02:11:02;102660.91;;;3.90;100.00
71778;BME280;59609;52.430;4.668;2023-03-02T02:13:27;102645.41;;;3.90;100.00
71778;BME280;59609;52.430;4.668;2023-03-02T02:15:53;102650.63;;;3.95;100.00
71778;BME280;59609;52.430;4.668;2023-03-02T02:18:18;102653.84;;;3.86;100.00
71778;BME280;59609;52.430;4.668;2023-03-02T02:20:45;102647.75;;;3.81;100.00
71778;BME280;59609;52.430;4.668;2023-03-02T02:33:39;102638.94;;;3.93;100.00
71778;BME280;59609;52.430;4.668;2023-03-02T02:36:11;102642.47;;;3.95;100.00
71778;BME280;59609;52.430;4.668;2023-03-02T02:38:39;102642.84;;;3.87;100.00
71778;BME280;59609;52.430;4.668;2023-03-02T02:41:07;102639.00;;;3.91;100.00
71778;BME280;59609;52.430;4.668;2023-03-02T02:43:37;102636.22;;;3.93;100.00
71778;BME280;59609;52.430;4.668;2023-03-02T02:46:02;102628.75;;;3.96;100.00
71778;BME280;59609;52.430;4.668;2023-03-02T02:48:30;102627.53;;;3.85;100.00
71778;BME280;59609;52.430;4.668;2023-03-02T02:50:57;102634.94;;;3.83;100.00
71778;BME280;59609;52.430;4.668;2023-03-02T02:56:27;102629.53;;;3.81;100.00
71778;BME280;59609;52.430;4.668;2023-03-02T02:58:54;102623.69;;;3.89;100.00
71778;BME280;59609;52.430;4.668;2023-03-02T03:01:22;102627.09;;;3.77;100.00
71778;BME280;59609;52.430;4.668;2023-03-02T03:03:54;102616.81;;;3.82;100.00
71778;BME280;59609;52.430;4.668;2023-03-02T03:06:25;102616.06;;;3.78;100.00
71778;BME280;59609;52.430;4.668;2023-03-02T03:08:55;102618.75;;;3.80;100.00
71778;BME280;59609;52.430;4.668;2023-03-02T03:11:24;102629.66;;;3.80;100.00
71778;BME280;59609;52.430;4.668;2023-03-02T03:14:04;102626.31;;;3.90;100.00
71778;BME280;59609;52.430;4.668;2023-03-02T03:16:31;102632.50;;;3.94;100.00
71778;BME280;59609;52.430;4.668;2023-03-02T03:19:09;102626.44;;;3.89;100.00
71778;BME280;59609;52.430;4.668;2023-03-02T03:21:36;102623.88;;;3.86;100.00
71778;BME280;59609;52.430;4.668;2023-03-02T03:24:01;102616.25;;;3.75;100.00
71778;BME280;59609;52.430;4.668;2023-03-02T03:26:27;102614.31;;;3.77;100.00
71778;BME280;59609;52.430;4.668;2023-03-02T03:28:52;102617.91;;;3.95;100.00
71778;BME280;59609;52.430;4.668;2023-03-02T03:31:22;102623.13;;;3.82;100.00
71778;BME280;59609;52.430;4.668;2023-03-02T03:33:47;102618.81;;;3.78;100.00
71778;BME280;59609;52.430;4.668;2023-03-02T03:36:13;102626.03;;;3.79;100.00
71778;BME280;59609;52.430;4.668;2023-03-02T03:38:39;102618.34;;;3.70;100.00
71778;BME280;59609;52.430;4.668;2023-03-02T03:41:04;102623.50;;;3.57;100.00
71778;BME280;59609;52.430;4.668;2023-03-02T03:43:30;102624.41;;;3.58;100.00
71778;BME280;59609;52.430;4.668;2023-03-02T03:45:55;102620.88;;;3.56;100.00
71778;BME280;59609;52.430;4.668;2023-03-02T03:48:20;102628.91;;;3.59;100.00
71778;BME280;59609;52.430;4.668;2023-03-02T03:50:46;102614.44;;;3.57;100.00
71778;BME280;59609;52.430;4.668;2023-03-02T03:53:11;102618.63;;;3.64;100.00
71778;BME280;59609;52.430;4.668;2023-03-02T03:55:36;102617.44;;;3.70;100.00
71778;BME280;59609;52.430;4.668;2023-03-02T03:58:02;102620.31;;;3.49;100.00
71778;BME280;59609;52.430;4.668;2023-03-02T04:00:27;102611.59;;;3.60;100.00
71778;BME280;59609;52.430;4.668;2023-03-02T04:02:52;102618.47;;;3.67;100.00
71778;BME280;59609;52.430;4.668;2023-03-02T04:05:18;102616.16;;;3.59;100.00
71778;BME280;59609;52.430;4.668;2023-03-02T04:07:44;102617.91;;;3.60;100.00
71778;BME280;59609;52.430;4.668;2023-03-02T04:10:10;102621.06;;;3.70;100.00
71778;BME280;59609;52.430;4.668;2023-03-02T04:12:38;102620.75;;;3.76;100.00
71778;BME280;59609;52.430;4.668;2023-03-02T04:15:05;102622.19;;;3.66;100.00
71778;BME280;59609;52.430;4.668;2023-03-02T04:17:31;102613.69;;;3.72;100.00
71778;BME280;59609;52.430;4.668;2023-03-02T04:19:56;102617.63;;;3.67;100.00
71778;BME280;59609;52.430;4.668;2023-03-02T04:22:22;102608.94;;;3.58;100.00
71778;BME280;59609;52.430;4.668;2023-03-02T04:24:49;102620.41;;;3.65;100.00
71778;BME280;59609;52.430;4.668;2023-03-02T04:27:15;102611.44;;;3.63;100.00
71778;BME280;59609;52.430;4.668;2023-03-02T04:29:41;102612.88;;;3.70;100.00
71778;BME280;59609;52.430;4.668;2023-03-02T04:32:08;102614.63;;;3.71;100.00
71778;BME280;59609;52.430;4.668;2023-03-02T04:34:34;102618.56;;;3.66;100.00
71778;BME280;59609;52.430;4.668;2023-03-02T04:37:00;102615.63;;;3.70;100.00
71778;BME280;59609;52.430;4.668;2023-03-02T04:39:25;102624.72;;;3.52;100.00
71778;BME280;59609;52.430;4.668;2023-03-02T04:41:51;102623.84;;;3.51;100.00
71778;BME280;59609;52.430;4.668;2023-03-02T04:44:18;102624.88;;;3.49;100.00
71778;BME280;59609;52.430;4.668;2023-03-02T04:46:44;102620.50;;;3.28;100.00
71778;BME280;59609;52.430;4.668;2023-03-02T04:49:09;102621.22;;;3.31;100.00
71778;BME280;59609;52.430;4.668;2023-03-02T04:51:37;102607.47;;;3.34;100.00
71778;BME280;59609;52.430;4.668;2023-03-02T04:54:06;102620.31;;;3.49;100.00
71778;BME280;59609;52.430;4.668;2023-03-02T04:56:33;102602.97;;;3.50;100.00
71778;BME280;59609;52.430;4.668;2023-03-02T04:59:00;102613.97;;;3.49;100.00
71778;BME280;59609;52.430;4.668;2023-03-02T05:01:26;102600.34;;;3.49;100.00
71778;BME280;59609;52.430;4.668;2023-03-02T05:03:52;102596.59;;;3.51;100.00
71778;BME280;59609;52.430;4.668;2023-03-02T05:06:18;102609.81;;;3.59;100.00
71778;BME280;59609;52.430;4.668;2023-03-02T05:08:46;102601.31;;;3.65;100.00
71778;BME280;59609;52.430;4.668;2023-03-02T05:11:13;102593.16;;;3.65;100.00
71778;BME280;59609;52.430;4.668;2023-03-02T05:13:47;102597.00;;;3.61;100.00
71778;BME280;59609;52.430;4.668;2023-03-02T05:16:12;102599.25;;;3.53;100.00
71778;BME280;59609;52.430;4.668;2023-03-02T05:18:37;102603.72;;;3.54;100.00
71778;BME280;59609;52.430;4.668;2023-03-02T05:21:03;102606.91;;;3.45;100.00
71778;BME280;59609;52.430;4.668;2023-03-02T05:23:28;102594.25;;;3.44;100.00
71778;BME280;59609;52.430;4.668;2023-03-02T05:25:55;102604.13;;;3.46;100.00
71778;BME280;59609;52.430;4.668;2023-03-02T05:28:23;102599.94;;;3.39;100.00
71778;BME280;59609;52.430;4.668;2023-03-02T05:30:51;102600.91;;;3.38;100.00
71778;BME280;59609;52.430;4.668;2023-03-02T05:33:17;102604.72;;;3.34;100.00
71778;BME280;59609;52.430;4.668;2023-03-02T05:35:44;102595.25;;;3.24;100.00
71778;BME280;59609;52.430;4.668;2023-03-02T05:38:10;102591.75;;;3.22;100.00
71778;BME280;59609;52.430;4.668;2023-03-02T05:40:36;102602.91;;;3.35;100.00
71778;BME280;59609;52.430;4.668;2023-03-02T05:43:01;102601.69;;;3.40;100.00
71778;BME280;59609;52.430;4.668;2023-03-02T05:45:30;102605.78;;;3.32;100.00
71778;BME280;59609;52.430;4.668;2023-03-02T05:47:55;102605.47;;;3.38;100.00
71778;BME280;59609;52.430;4.668;2023-03-02T05:50:21;102598.69;;;3.46;100.00
71778;BME280;59609;52.430;4.668;2023-03-02T05:52:46;102603.72;;;3.54;100.00
71778;BME280;59609;52.430;4.668;2023-03-02T05:55:13;102610.16;;;3.53;100.00
71778;BME280;59609;52.430;4.668;2023-03-02T05:57:39;102605.09;;;3.45;100.00
71778;BME280;59609;52.430;4.668;2023-03-02T06:00:06;102614.47;;;3.40;100.00
71778;BME280;59609;52.430;4.668;2023-03-02T06:02:31;102608.28;;;3.36;100.00
71778;BME280;59609;52.430;4.668;2023-03-02T06:04:57;102611.97;;;3.52;100.00
71778;BME280;59609;52.430;4.668;2023-03-02T06:07:22;102614.88;;;3.49;100.00
71778;BME280;59609;52.430;4.668;2023-03-02T06:09:47;102611.97;;;3.35;100.00
71778;BME280;59609;52.430;4.668;2023-03-02T06:12:13;102620.13;;;3.35;100.00
71778;BME280;59609;52.430;4.668;2023-03-02T06:14:39;102615.56;;;3.36;100.00
71778;BME280;59609;52.430;4.668;2023-03-02T06:17:04;102617.41;;;3.35;100.00
71778;BME280;59609;52.430;4.668;2023-03-02T06:19:30;102625.09;;;3.44;100.00
71778;BME280;59609;52.430;4.668;2023-03-02T06:21:55;102616.34;;;3.38;100.00
71778;BME280;59609;52.430;4.668;2023-03-02T06:24:20;102615.09;;;3.45;100.00
71778;BME280;59609;52.430;4.668;2023-03-02T06:26:46;102615.25;;;3.42;100.00
71778;BME280;59609;52.430;4.668;2023-03-02T06:29:11;102622.84;;;3.35;100.00
71778;BME280;59609;52.430;4.668;2023-03-02T06:31:36;102622.84;;;3.35;100.00
71778;BME280;59609;52.430;4.668;2023-03-02T06:34:02;102628.81;;;3.43;100.00
71778;BME280;59609;52.430;4.668;2023-03-02T06:36:27;102616.66;;;3.32;100.00
71778;BME280;59609;52.430;4.668;2023-03-02T06:38:53;102633.91;;;3.32;100.00
71778;BME280;59609;52.430;4.668;2023-03-02T06:41:19;102615.38;;;3.22;100.00
71778;BME280;59609;52.430;4.668;2023-03-02T06:43:44;102638.16;;;3.38;100.00
71778;BME280;59609;52.430;4.668;2023-03-02T06:46:10;102636.81;;;3.46;100.00
71778;BME280;59609;52.430;4.668;2023-03-02T06:48:35;102647.56;;;3.49;100.00
71778;BME280;59609;52.430;4.668;2023-03-02T06:51:01;102636.50;;;3.52;100.00
71778;BME280;59609;52.430;4.668;2023-03-02T06:53:27;102643.56;;;3.56;100.00
71778;BME280;59609;52.430;4.668;2023-03-02T06:55:52;102634.88;;;3.48;100.00
71778;BME280;59609;52.430;4.668;2023-03-02T06:58:17;102640.03;;;3.54;100.00
71778;BME280;59609;52.430;4.668;2023-03-02T07:00:43;102641.78;;;3.55;100.00
71778;BME280;59609;52.430;4.668;2023-03-02T07:03:08;102642.38;;;3.62;100.00
71778;BME280;59609;52.430;4.668;2023-03-02T07:05:33;102643.16;;;3.64;100.00
71778;BME280;59609;52.430;4.668;2023-03-02T07:08:00;102644.44;;;3.57;100.00
71778;BME280;59609;52.430;4.668;2023-03-02T07:10:26;102633.41;;;3.60;100.00
71778;BME280;59609;52.430;4.668;2023-03-02T07:12:51;102641.78;;;3.55;100.00
71778;BME280;59609;52.430;4.668;2023-03-02T07:15:18;102646.28;;;3.74;100.00
71778;BME280;59609;52.430;4.668;2023-03-02T07:17:44;102645.03;;;3.63;100.00
71778;BME280;59609;52.430;4.668;2023-03-02T07:20:15;102643.50;;;3.75;100.00
71778;BME280;59609;52.430;4.668;2023-03-02T07:22:41;102641.34;;;3.82;100.00
71778;BME280;59609;52.430;4.668;2023-03-02T07:25:08;102641.84;;;3.90;100.00
71778;BME280;59609;52.430;4.668;2023-03-02T07:27:34;102651.13;;;4.03;100.00
71778;BME280;59609;52.430;4.668;2023-03-02T07:30:00;102638.13;;;3.91;100.00
71778;BME280;59609;52.430;4.668;2023-03-02T07:32:26;102642.06;;;4.02;100.00
71778;BME280;59609;52.430;4.668;2023-03-02T07:34:51;102640.47;;;3.98;100.00
71778;BME280;59609;52.430;4.668;2023-03-02T07:37:16;102633.78;;;4.04;100.00
71778;BME280;59609;52.430;4.668;2023-03-02T07:39:42;102640.06;;;4.06;100.00
71778;BME280;59609;52.430;4.668;2023-03-02T07:42:07;102635.56;;;4.05;100.00
71778;BME280;59609;52.430;4.668;2023-03-02T07:44:35;102642.78;;;4.23;100.00
71778;BME280;59609;52.430;4.668;2023-03-02T07:47:00;102651.69;;;4.27;100.00
71778;BME280;59609;52.430;4.668;2023-03-02T07:49:26;102647.75;;;4.15;100.00
71778;BME280;59609;52.430;4.668;2023-03-02T07:51:51;102645.00;;;4.15;100.00
71778;BME280;59609;52.430;4.668;2023-03-02T07:54:17;102642.28;;;4.15;100.00
71778;BME280;59609;52.430;4.668;2023-03-02T07:56:42;102642.47;;;3.95;100.00
71778;BME280;59609;52.430;4.668;2023-03-02T07:59:07;102639.06;;;4.07;100.00
71778;BME280;59609;52.430;4.668;2023-03-02T08:01:33;102645.94;;;4.31;100.00
71778;BME280;59609;52.430;4.668;2023-03-02T08:03:58;102639.84;;;4.43;100.00
71778;BME280;59609;52.430;4.668;2023-03-02T08:06:24;102647.56;;;4.35;100.00
71778;BME280;59609;52.430;4.668;2023-03-02T08:08:49;102647.34;;;4.55;100.00
71778;BME280;59609;52.430;4.668;2023-03-02T08:11:16;102653.50;;;4.43;100.00
71778;BME280;59609;52.430;4.668;2023-03-02T08:13:42;102645.22;;;4.28;100.00
71778;BME280;59609;52.430;4.668;2023-03-02T08:16:10;102643.16;;;4.33;100.00
71778;BME280;59609;52.430;4.668;2023-03-02T08:18:36;102650.13;;;4.38;100.00
71778;BME280;59609;52.430;4.668;2023-03-02T08:21:03;102641.13;;;4.69;99.37
71778;BME280;59609;52.430;4.668;2023-03-02T08:23:29;102639.25;;;4.54;99.58
71778;BME280;59609;52.430;4.668;2023-03-02T08:25:54;102645.94;;;4.31;99.25
71778;BME280;59609;52.430;4.668;2023-03-02T08:28:21;102647.16;;;4.43;99.63
71778;BME280;59609;52.430;4.668;2023-03-02T08:30:57;102652.28;;;4.32;100.00
71778;BME280;59609;52.430;4.668;2023-03-02T08:33:23;102655.75;;;4.35;100.00
71778;BME280;59609;52.430;4.668;2023-03-02T08:36:04;102653.34;;;4.29;100.00
71778;BME280;59609;52.430;4.668;2023-03-02T08:38:30;102640.16;;;4.37;100.00
71778;BME280;59609;52.430;4.668;2023-03-02T08:40:56;102629.69;;;4.78;98.28
71778;BME280;59609;52.430;4.668;2023-03-02T08:43:23;102638.16;;;4.74;98.34
71778;BME280;59609;52.430;4.668;2023-03-02T08:45:53;102649.50;;;4.66;98.31
71778;BME280;59609;52.430;4.668;2023-03-02T08:48:21;102637.00;;;4.78;98.04
71778;BME280;59609;52.430;4.668;2023-03-02T08:50:58;102637.88;;;4.62;98.14
71778;BME280;59609;52.430;4.668;2023-03-02T08:53:24;102630.69;;;5.08;97.69
71778;BME280;59609;52.430;4.668;2023-03-02T08:55:50;102639.50;;;5.29;97.54
71778;BME280;59609;52.430;4.668;2023-03-02T08:58:15;102639.25;;;5.02;97.14
71778;BME280;59609;52.430;4.668;2023-03-02T09:00:42;102644.41;;;4.76;97.92
71778;BME280;59609;52.430;4.668;2023-03-02T09:03:07;102654.41;;;4.59;98.36
71778;BME280;59609;52.430;4.668;2023-03-02T09:05:32;102649.03;;;4.58;98.42
71778;BME280;59609;52.430;4.668;2023-03-02T09:07:58;102644.94;;;4.82;98.58
71778;BME280;59609;52.430;4.668;2023-03-02T09:10:23;102637.22;;;5.06;98.74
71778;BME280;59609;52.430;4.668;2023-03-02T09:12:49;102647.44;;;4.87;98.23
71778;BME280;59609;52.430;4.668;2023-03-02T09:15:14;102648.28;;;4.87;97.68
71778;BME280;59609;52.430;4.668;2023-03-02T09:17:39;102641.97;;;5.02;97.95
71778;BME280;59609;52.430;4.668;2023-03-02T09:20:06;102645.47;;;5.51;97.02
71778;BME280;59609;52.430;4.668;2023-03-02T09:22:31;102638.69;;;6.18;95.14
71778;BME280;59609;52.430;4.668;2023-03-02T09:25:00;102638.94;;;6.29;93.28
71778;BME280;59609;52.430;4.668;2023-03-02T09:27:25;102639.13;;;6.26;92.63
71778;BME280;59609;52.430;4.668;2023-03-02T09:29:52;102623.47;;;6.85;90.07
71778;BME280;59609;52.430;4.668;2023-03-02T09:32:17;102639.75;;;6.73;89.51
71778;BME280;59609;52.430;4.668;2023-03-02T09:34:42;102640.03;;;6.11;89.97
71778;BME280;59609;52.430;4.668;2023-03-02T09:37:09;102634.34;;;6.58;90.68
71778;BME280;59609;52.430;4.668;2023-03-02T09:39:36;102632.34;;;6.03;90.26
71778;BME280;59609;52.430;4.668;2023-03-02T09:47:26;102644.91;;;6.92;88.76
71778;BME280;59609;52.430;4.668;2023-03-02T09:55:34;102634.69;;;6.09;90.56
71778;BME280;59609;52.430;4.668;2023-03-02T09:58:04;102635.56;;;6.24;90.93
71778;BME280;59609;52.430;4.668;2023-03-02T10:00:35;102630.97;;;6.10;91.23
71778;BME280;59609;52.430;4.668;2023-03-02T10:03:06;102635.38;;;5.83;92.16
71778;BME280;59609;52.430;4.668;2023-03-02T10:05:39;102630.44;;;6.04;92.73
71778;BME280;59609;52.430;4.668;2023-03-02T10:08:05;102640.28;;;6.22;92.24
71778;BME280;59609;52.430;4.668;2023-03-02T10:10:43;102639.41;;;6.36;91.71
71778;BME280;59609;52.430;4.668;2023-03-02T10:13:23;102641.97;;;6.53;91.82
71778;BME280;59609;52.430;4.668;2023-03-02T10:18:44;102635.66;;;7.07;90.05
71778;BME280;59609;52.430;4.668;2023-03-02T10:21:21;102645.16;;;7.30;88.75
71778;BME280;59609;52.430;4.668;2023-03-02T10:24:03;102641.81;;;7.25;87.83
71778;BME280;59609;52.430;4.668;2023-03-02T10:29:20;102632.34;;;7.16;87.75
71778;BME280;59609;52.430;4.668;2023-03-02T10:31:52;102641.00;;;6.96;89.82
71778;BME280;59609;52.430;4.668;2023-03-02T10:34:26;102636.69;;;6.64;90.97
71778;BME280;59609;52.430;4.668;2023-03-02T10:36:53;102635.84;;;6.63;90.67
71778;BME280;59609;52.430;4.668;2023-03-02T10:39:18;102633.09;;;6.63;91.41
71778;BME280;59609;52.430;4.668;2023-03-02T10:41:55;102624.16;;;6.88;90.72
71778;BME280;59609;52.430;4.668;2023-03-02T10:44:26;102632.22;;;6.63;90.57
71778;BME280;59609;52.430;4.668;2023-03-02T10:46:55;102627.13;;;6.57;91.16
71778;BME280;59609;52.430;4.668;2023-03-02T10:49:36;102631.69;;;6.70;90.30
71778;BME280;59609;52.430;4.668;2023-03-02T10:52:14;102623.97;;;6.49;90.93
71778;BME280;59609;52.430;4.668;2023-03-02T10:54:40;102622.69;;;6.54;91.36
71778;BME280;59609;52.430;4.668;2023-03-02T10:57:41;102629.06;;;6.83;91.12
71778;BME280;59609;52.430;4.668;2023-03-02T11:00:23;102631.69;;;6.99;90.80
71778;BME280;59609;52.430;4.668;2023-03-02T11:05:35;102629.63;;;7.43;88.14
71778;BME280;59609;52.430;4.668;2023-03-02T11:08:07;102621.91;;;8.02;85.83
71778;BME280;59609;52.430;4.668;2023-03-02T11:10:38;102618.38;;;7.87;85.61
71778;BME280;59609;52.430;4.668;2023-03-02T11:13:16;102625.53;;;7.63;85.55
71778;BME280;59609;52.430;4.668;2023-03-02T11:15:48;102628.97;;;7.66;86.29
71778;BME280;59609;52.430;4.668;2023-03-02T11:18:39;102631.16;;;7.47;85.92
71778;BME280;59609;52.430;4.668;2023-03-02T11:21:09;102638.72;;;7.03;87.14
71778;BME280;59609;52.430;4.668;2023-03-02T11:23:57;102636.34;;;7.11;86.56
71778;BME280;59609;52.430;4.668;2023-03-02T11:26:28;102639.22;;;7.50;86.53
71778;BME280;59609;52.430;4.668;2023-03-02T11:29:30;102634.56;;;7.77;84.33
71778;BME280;59609;52.430;4.668;2023-03-02T11:34:43;102619.34;;;7.86;84.65
71778;BME280;59609;52.430;4.668;2023-03-02T11:39:57;102614.94;;;8.48;82.78
71778;BME280;59609;52.430;4.668;2023-03-02T11:42:34;102609.63;;;8.96;80.02
71778;BME280;59609;52.430;4.668;2023-03-02T11:47:32;102608.13;;;8.41;80.49
71778;BME280;59609;52.430;4.668;2023-03-02T11:50:02;102611.00;;;8.40;80.26
71778;BME280;59609;52.430;4.668;2023-03-02T11:52:32;102611.97;;;8.26;80.39
71778;BME280;59609;52.430;4.668;2023-03-02T11:57:45;102603.28;;;8.83;77.37
71778;BME280;59609;52.430;4.668;2023-03-02T12:00:16;102599.28;;;8.99;78.31
71778;BME280;59609;52.430;4.668;2023-03-02T12:02:57;102605.56;;;8.89;78.77
71778;BME280;59609;52.430;4.668;2023-03-02T12:05:26;102597.03;;;8.81;79.82
71778;BME280;59609;52.430;4.668;2023-03-02T12:08:00;102601.47;;;9.07;77.80
71778;BME280;59609;52.430;4.668;2023-03-02T12:13:05;102593.84;;;9.70;75.85
71778;BME280;59609;52.430;4.668;2023-03-02T12:15:38;102600.91;;;9.86;76.33
71778;BME280;59609;52.430;4.668;2023-03-02T12:21:04;102594.41;;;9.98;75.99
71778;BME280;59609;52.430;4.668;2023-03-02T12:23:32;102586.94;;;10.00;74.18
71778;BME280;59609;52.430;4.668;2023-03-02T12:26:22;102582.84;;;9.47;75.04
71778;BME280;59609;52.430;4.668;2023-03-02T12:29:22;102579.28;;;9.57;75.30
71778;BME280;59609;52.430;4.668;2023-03-02T12:31:54;102572.09;;;9.78;73.38
71778;BME280;59609;52.430;4.668;2023-03-02T12:36:49;102572.78;;;10.04;74.27
71778;BME280;59609;52.430;4.668;2023-03-02T12:42:00;102570.16;;;10.03;74.81
71778;BME280;59609;52.430;4.668;2023-03-02T12:44:56;102575.16;;;10.32;73.19
71778;BME280;59609;52.430;4.668;2023-03-02T12:47:25;102569.38;;;9.90;75.14
71778;BME280;59609;52.430;4.668;2023-03-02T12:49:59;102566.63;;;9.90;74.15
71778;BME280;59609;52.430;4.668;2023-03-02T12:52:34;102569.38;;;10.01;72.68
71778;BME280;59609;52.430;4.668;2023-03-02T12:57:36;102567.66;;;10.57;71.58
71778;BME280;59609;52.430;4.668;2023-03-02T13:00:03;102562.59;;;10.28;71.10
71778;BME280;59609;52.430;4.668;2023-03-02T13:02:31;102567.13;;;10.52;70.43
71778;BME280;59609;52.430;4.668;2023-03-02T13:05:00;102562.78;;;10.60;69.72
71778;BME280;59609;52.430;4.668;2023-03-02T13:07:26;102565.25;;;10.30;69.98
71778;BME280;59609;52.430;4.668;2023-03-02T13:09:56;102557.22;;;10.16;72.50
71778;BME280;59609;52.430;4.668;2023-03-02T13:12:22;102558.72;;;10.31;71.21
71778;BME280;59609;52.430;4.668;2023-03-02T13:14:54;102540.47;;;10.63;71.73
71778;BME280;59609;52.430;4.668;2023-03-02T13:17:23;102543.72;;;10.79;70.35
71778;BME280;59609;52.430;4.668;2023-03-02T13:19:48;102528.06;;;10.69;71.45
71778;BME280;59609;52.430;4.668;2023-03-02T13:22:15;102523.31;;;10.26;72.83
71778;BME280;59609;52.430;4.668;2023-03-02T13:24:56;102532.44;;;10.27;72.53
71778;BME280;59609;52.430;4.668;2023-03-02T13:27:24;102524.41;;;10.68;71.31
71778;BME280;59609;52.430;4.668;2023-03-02T13:29:50;102521.28;;;10.62;71.72
71778;BME280;59609;52.430;4.668;2023-03-02T13:32:33;102522.28;;;10.72;71.26
71778;BME280;59609;52.430;4.668;2023-03-02T13:34:59;102506.13;;;10.45;72.90
71778;BME280;59609;52.430;4.668;2023-03-02T13:40:03;102516.25;;;11.00;72.92
71778;BME280;59609;52.430;4.668;2023-03-02T13:42:38;102506.63;;;10.72;73.53
71778;BME280;59609;52.430;4.668;2023-03-02T13:47:47;102501.13;;;10.72;73.83
71778;BME280;59609;52.430;4.668;2023-03-02T13:50:22;102509.88;;;10.77;73.03
71778;BME280;59609;52.430;4.668;2023-03-02T13:52:49;102499.22;;;10.84;72.99
71778;BME280;59609;52.430;4.668;2023-03-02T13:55:17;102504.81;;;11.05;72.11
71778;BME280;59609;52.430;4.668;2023-03-02T13:57:43;102502.03;;;11.05;72.39
71778;BME280;59609;52.430;4.668;2023-03-02T14:00:17;102506.22;;;11.31;70.91